Time;durP1;ratioP1;P1;durP2;ratioP2;P2;SDS_P1;SDS_P2;PMS_P1;PMS_P2;Temp;Humidity;BMP_temperature;BMP_pressure;BME280_temperature;BME280_humidity;BME280_pressure;Samples;Min_cycle;Max_cycle;Signal;HPM_P1;HPM_P2
2022/12/01 00:00:19;;;;;;;10.10;5.47;;;5.90;99.90;;;;;;7504748;23;20094;-81
2022/12/01 00:03:21;;;;;;;9.60;5.82;;;5.90;99.90;;;;;;7503704;23;20031;-81
2022/12/01 00:06:24;;;;;;;8.73;5.32;;;6.00;99.90;;;;;;7505012;23;20106;-82
2022/12/01 00:12:45;;;;;;;14.73;7.47;;;6.00;99.90;;;;;;7505098;23;20063;-81
2022/12/01 00:15:47;;;;;;;12.52;7.05;;;6.00;99.90;;;;;;7504871;23;20015;-81
2022/12/01 00:18:50;;;;;;;12.55;7.88;;;6.00;99.90;;;;;;7503484;23;20027;-82
2022/12/01 00:21:53;;;;;;;12.88;7.70;;;6.00;99.90;;;;;;7503085;23;20024;-81
2022/12/01 00:24:54;;;;;;;15.05;8.38;;;6.00;99.90;;;;;;7504592;23;20037;-80
2022/12/01 00:27:56;;;;;;;12.45;7.40;;;5.90;99.90;;;;;;7503801;23;20626;-82
2022/12/01 00:30:58;;;;;;;13.95;8.73;;;5.90;99.90;;;;;;7507435;23;20098;-81
2022/12/01 00:34:01;;;;;;;15.05;9.70;;;5.90;99.90;;;;;;7508226;23;20051;-81
2022/12/01 00:37:04;;;;;;;15.02;8.48;;;5.90;99.90;;;;;;7508081;23;20102;-81
2022/12/01 00:40:09;;;;;;;13.38;9.43;;;5.90;99.90;;;;;;7508318;23;20095;-81
2022/12/01 00:43:11;;;;;;;10.15;6.47;;;5.90;99.90;;;;;;7509616;23;20027;-81
2022/12/01 00:46:12;;;;;;;10.52;6.45;;;5.90;99.90;;;;;;7509268;23;20535;-81
2022/12/01 00:49:17;;;;;;;12.35;6.75;;;5.80;99.90;;;;;;7506386;23;20020;-81
2022/12/01 00:52:21;;;;;;;18.75;9.80;;;5.80;99.90;;;;;;7505913;23;20502;-80
2022/12/01 00:55:24;;;;;;;15.02;7.45;;;5.90;99.90;;;;;;7506100;23;20082;-80
2022/12/01 00:58:26;;;;;;;11.20;7.68;;;5.90;99.90;;;;;;7519005;23;20019;-82
2022/12/01 01:01:29;;;;;;;15.40;8.32;;;5.90;99.90;;;;;;7506034;23;20539;-81
2022/12/01 01:04:32;;;;;;;18.90;8.82;;;5.90;99.90;;;;;;7492937;23;20024;-80
2022/12/01 01:07:39;;;;;;;16.83;9.30;;;5.90;99.90;;;;;;7497712;23;20488;-81
2022/12/01 01:10:43;;;;;;;12.82;8.20;;;5.80;99.90;;;;;;7501395;23;20050;-81
2022/12/01 01:13:46;;;;;;;15.27;9.00;;;5.90;99.90;;;;;;7502650;23;20027;-80
2022/12/01 01:16:48;;;;;;;14.23;8.90;;;5.90;99.90;;;;;;7501646;23;20024;-81
2022/12/01 01:19:52;;;;;;;18.00;10.20;;;5.90;99.90;;;;;;7501241;23;20023;-81
2022/12/01 01:23:22;;;;;;;18.38;9.38;;;5.90;99.90;;;;;;7501265;23;20058;-82
2022/12/01 01:26:35;;;;;;;17.08;11.40;;;5.80;99.90;;;;;;7502105;23;20023;-81
2022/12/01 01:29:37;;;;;;;19.80;11.20;;;5.80;99.90;;;;;;7499170;23;20023;-81
2022/12/01 01:32:39;;;;;;;17.42;11.25;;;5.80;99.90;;;;;;7501371;23;20027;-81
2022/12/01 01:35:40;;;;;;;20.58;12.10;;;5.80;99.90;;;;;;7501401;23;20087;-81
2022/12/01 01:38:44;;;;;;;20.50;13.15;;;5.80;99.90;;;;;;7501578;23;20399;-81
2022/12/01 01:41:49;;;;;;;24.08;13.57;;;5.70;99.90;;;;;;7501332;23;20079;-81
2022/12/01 01:44:53;;;;;;;20.38;12.27;;;5.80;99.90;;;;;;7503397;23;20147;-81
2022/12/01 01:48:04;;;;;;;25.13;13.70;;;5.70;99.90;;;;;;7502712;23;20035;-81
2022/12/01 01:51:17;;;;;;;24.85;15.02;;;5.70;99.90;;;;;;7502414;23;20075;-82
2022/12/01 01:54:30;;;;;;;27.25;15.50;;;5.70;99.90;;;;;;7504168;23;20080;-80
2022/12/01 01:57:33;;;;;;;25.17;13.45;;;5.70;99.90;;;;;;7503857;23;20035;-80
2022/12/01 02:00:37;;;;;;;26.90;15.80;;;5.70;99.90;;;;;;7508770;23;20472;-81
2022/12/01 02:03:41;;;;;;;30.15;16.70;;;5.70;99.90;;;;;;7506271;23;20061;-83
2022/12/01 02:06:43;;;;;;;26.23;15.40;;;5.60;99.90;;;;;;7506362;23;20024;-82
2022/12/01 02:09:46;;;;;;;26.20;16.58;;;5.60;99.90;;;;;;7506965;23;20486;-82
2022/12/01 02:13:01;;;;;;;27.45;16.00;;;5.50;99.90;;;;;;7506561;23;20106;-83
2022/12/01 02:16:12;;;;;;;27.33;15.93;;;5.50;99.90;;;;;;7504519;23;20460;-83
2022/12/01 02:19:39;;;;;;;33.83;18.17;;;5.40;99.90;;;;;;7505800;23;20094;-82
2022/12/01 02:22:53;;;;;;;25.08;13.82;;;5.40;99.90;;;;;;7514940;23;20106;-82
2022/12/01 02:26:13;;;;;;;26.45;16.90;;;5.40;99.90;;;;;;7503347;23;20073;-82
2022/12/01 02:29:56;;;;;;;31.13;17.08;;;5.40;99.90;;;;;;7503987;23;20422;-82
2022/12/01 02:33:07;;;;;;;23.92;14.25;;;5.30;99.90;;;;;;7501495;23;20023;-81
2022/12/01 02:36:34;;;;;;;23.70;14.13;;;5.40;99.90;;;;;;7501876;23;20071;-83
2022/12/01 02:39:54;;;;;;;21.23;12.27;;;5.30;99.90;;;;;;7503034;23;20063;-83
2022/12/01 02:43:05;;;;;;;19.00;12.93;;;5.30;99.90;;;;;;7504520;23;20071;-83
2022/12/01 02:46:23;;;;;;;20.67;14.60;;;5.40;99.90;;;;;;7502910;23;20110;-81
2022/12/01 02:49:32;;;;;;;17.60;10.57;;;5.30;99.90;;;;;;7499871;23;20359;-82
2022/12/01 02:52:34;;;;;;;21.83;14.48;;;5.30;99.90;;;;;;7507701;23;20405;-82
2022/12/01 02:55:36;;;;;;;25.90;15.07;;;5.30;99.90;;;;;;7503056;23;20075;-80
2022/12/01 02:58:38;;;;;;;25.33;14.63;;;5.30;99.90;;;;;;7502913;23;20050;-81
2022/12/01 03:02:04;;;;;;;23.85;14.55;;;5.30;99.90;;;;;;7503783;23;20118;-81
2022/12/01 03:05:15;;;;;;;24.90;12.48;;;5.30;99.90;;;;;;7505672;23;20023;-81
2022/12/01 03:08:26;;;;;;;19.92;12.25;;;5.20;99.90;;;;;;7507676;23;20036;-82
2022/12/01 03:11:38;;;;;;;25.08;14.40;;;5.20;99.90;;;;;;7501946;23;20047;-83
2022/12/01 03:14:46;;;;;;;20.42;13.30;;;5.20;99.90;;;;;;7503291;23;20110;-81
2022/12/01 03:17:58;;;;;;;23.88;14.32;;;5.20;99.90;;;;;;7502855;23;20023;-83
2022/12/01 03:21:06;;;;;;;21.27;11.95;;;5.10;99.90;;;;;;7499811;23;20114;-82
2022/12/01 03:24:13;;;;;;;20.95;13.25;;;5.10;99.90;;;;;;7498059;23;20335;-82
2022/12/01 03:27:18;;;;;;;22.80;15.23;;;5.10;99.90;;;;;;7498948;23;20034;-82
2022/12/01 03:30:20;;;;;;;26.08;16.23;;;5.10;99.90;;;;;;7499523;23;20027;-82
2022/12/01 03:33:27;;;;;;;29.35;13.70;;;5.00;99.90;;;;;;7499385;23;20460;-81
2022/12/01 03:36:35;;;;;;;20.55;13.52;;;5.00;99.90;;;;;;7499059;23;20185;-81
2022/12/01 03:39:39;;;;;;;24.52;14.57;;;4.90;99.90;;;;;;7499728;23;20026;-81
2022/12/01 03:42:46;;;;;;;22.45;14.55;;;5.00;99.90;;;;;;7501075;23;20033;-82
2022/12/01 03:45:55;;;;;;;26.17;15.63;;;4.90;99.90;;;;;;7498630;23;20102;-82
2022/12/01 03:48:57;;;;;;;23.15;15.60;;;4.90;99.90;;;;;;7499254;23;20505;-82
2022/12/01 03:52:11;;;;;;;24.90;14.10;;;4.90;99.90;;;;;;7506601;23;20029;-82
2022/12/01 03:55:17;;;;;;;26.38;13.80;;;4.90;99.90;;;;;;7498777;23;20024;-81
2022/12/01 03:58:23;;;;;;;27.42;15.48;;;4.90;99.90;;;;;;7511892;23;20027;-82
2022/12/01 04:01:27;;;;;;;23.27;14.48;;;4.90;99.90;;;;;;7499362;23;20059;-82
2022/12/01 04:04:28;;;;;;;23.85;14.25;;;4.90;99.90;;;;;;7499145;23;20033;-82
2022/12/01 04:07:49;;;;;;;22.73;13.02;;;4.90;99.90;;;;;;7498623;23;20371;-82
2022/12/01 04:10:58;;;;;;;23.90;13.70;;;4.90;99.90;;;;;;7500239;23;20029;-82
2022/12/01 04:13:59;;;;;;;22.38;12.75;;;4.90;99.90;;;;;;7508511;23;20098;-83
2022/12/01 04:17:01;;;;;;;23.50;13.50;;;4.90;99.90;;;;;;7534184;23;20258;-83
2022/12/01 04:20:06;;;;;;;23.08;13.55;;;4.90;99.90;;;;;;7533681;23;20029;-83
2022/12/01 04:23:09;;;;;;;19.90;11.93;;;4.80;99.90;;;;;;7534705;23;20118;-82
2022/12/01 04:26:11;;;;;;;29.77;16.83;;;4.80;99.90;;;;;;7535384;23;20023;-83
2022/12/01 04:29:14;;;;;;;23.77;12.77;;;4.70;99.90;;;;;;7533903;23;20520;-84
2022/12/01 04:32:16;;;;;;;21.42;14.85;;;4.70;99.90;;;;;;7533736;23;20388;-83
2022/12/01 04:35:17;;;;;;;26.52;16.23;;;4.70;99.90;;;;;;7534527;23;20027;-82
2022/12/01 04:38:20;;;;;;;25.58;15.63;;;4.70;99.90;;;;;;7534771;23;20101;-82
2022/12/01 04:41:22;;;;;;;22.42;15.57;;;4.70;99.90;;;;;;7534079;23;20054;-82
2022/12/01 04:44:24;;;;;;;24.50;14.45;;;4.70;99.90;;;;;;7534132;23;20023;-83
2022/12/01 04:47:26;;;;;;;23.35;13.88;;;4.70;99.90;;;;;;7534194;23;20018;-83
2022/12/01 04:50:27;;;;;;;30.85;16.13;;;4.70;99.90;;;;;;7534974;23;20030;-83
2022/12/01 04:53:31;;;;;;;29.55;16.67;;;4.70;99.90;;;;;;7533979;23;20023;-83
2022/12/01 04:56:33;;;;;;;39.22;16.35;;;4.70;99.90;;;;;;7534232;23;20027;-83
2022/12/01 04:59:35;;;;;;;27.27;15.27;;;4.70;99.90;;;;;;7533848;23;20076;-83
2022/12/01 05:02:37;;;;;;;26.38;13.95;;;4.70;99.90;;;;;;7534938;23;20482;-82
2022/12/01 05:05:38;;;;;;;24.10;15.48;;;4.70;99.90;;;;;;7534252;23;20057;-83
2022/12/01 05:08:41;;;;;;;25.45;16.27;;;4.70;99.90;;;;;;7533457;23;20033;-84
2022/12/01 05:11:43;;;;;;;22.90;14.18;;;4.80;99.90;;;;;;7534486;23;20022;-81
2022/12/01 05:14:46;;;;;;;28.08;16.17;;;4.80;99.90;;;;;;7533914;23;20602;-83
2022/12/01 05:17:48;;;;;;;27.77;15.93;;;4.80;99.90;;;;;;7533567;23;20081;-83
2022/12/01 05:20:57;;;;;;;27.90;15.35;;;4.80;99.90;;;;;;7533732;23;20101;-83
2022/12/01 05:24:00;;;;;;;28.90;18.08;;;4.80;99.90;;;;;;7542011;23;20026;-83
2022/12/01 05:27:02;;;;;;;29.70;17.40;;;4.80;99.90;;;;;;7552643;23;20050;-81
2022/12/01 05:30:05;;;;;;;24.58;14.10;;;4.90;99.90;;;;;;7552815;23;20023;-85
2022/12/01 05:33:07;;;;;;;29.13;16.23;;;4.90;99.90;;;;;;7533969;23;20023;-84
2022/12/01 05:36:09;;;;;;;22.67;13.93;;;4.90;99.90;;;;;;7533714;23;20022;-84
2022/12/01 05:39:12;;;;;;;28.17;15.40;;;4.90;99.90;;;;;;7532497;23;20475;-83
2022/12/01 05:42:14;;;;;;;23.02;14.93;;;4.90;99.90;;;;;;7533830;23;20023;-83
2022/12/01 05:45:16;;;;;;;24.80;13.90;;;4.90;99.90;;;;;;7532025;23;20440;-83
2022/12/01 05:48:18;;;;;;;30.13;15.48;;;4.90;99.90;;;;;;7532904;23;20158;-83
2022/12/01 05:51:20;;;;;;;30.83;14.80;;;4.90;99.90;;;;;;7532236;23;20078;-82
2022/12/01 05:54:23;;;;;;;24.73;14.68;;;4.90;99.90;;;;;;7533369;23;20033;-82
2022/12/01 05:57:25;;;;;;;23.92;14.00;;;4.90;99.90;;;;;;7531910;23;20327;-83
2022/12/01 06:00:26;;;;;;;21.00;14.07;;;4.90;99.90;;;;;;7531980;23;20026;-83
2022/12/01 06:03:28;;;;;;;26.30;13.80;;;4.90;99.90;;;;;;7532138;23;20019;-81
2022/12/01 06:06:30;;;;;;;24.92;14.85;;;4.90;99.90;;;;;;7532847;23;20033;-81
2022/12/01 06:09:33;;;;;;;25.50;14.73;;;4.90;99.90;;;;;;7531753;23;20015;-80
2022/12/01 06:12:35;;;;;;;27.23;15.00;;;4.90;99.90;;;;;;7531569;23;20023;-81
2022/12/01 06:15:36;;;;;;;24.98;14.73;;;4.90;99.90;;;;;;7531560;23;20019;-80
2022/12/01 06:18:39;;;;;;;21.50;12.70;;;5.00;99.90;;;;;;7531782;23;20033;-82
2022/12/01 06:21:41;;;;;;;23.63;14.73;;;5.00;99.90;;;;;;7532902;23;20023;-81
2022/12/01 06:24:44;;;;;;;27.17;15.35;;;5.00;99.90;;;;;;7531843;23;20102;-80
2022/12/01 06:27:46;;;;;;;33.17;14.50;;;5.00;99.90;;;;;;7531060;23;20029;-82
2022/12/01 06:30:47;;;;;;;20.13;11.73;;;5.00;99.90;;;;;;7532183;23;20019;-81
2022/12/01 06:33:49;;;;;;;25.98;13.77;;;5.00;99.90;;;;;;7531919;23;20026;-79
2022/12/01 06:36:51;;;;;;;28.30;14.15;;;5.10;99.90;;;;;;7531435;23;20023;-81
2022/12/01 06:39:54;;;;;;;26.52;15.82;;;5.00;99.90;;;;;;7531950;23;20023;-80
2022/12/01 06:43:00;;;;;;;26.13;15.13;;;5.10;99.90;;;;;;7532125;23;20336;-82
2022/12/01 06:46:03;;;;;;;26.30;14.65;;;5.00;99.90;;;;;;7531827;23;20045;-82
2022/12/01 06:49:05;;;;;;;23.52;14.00;;;5.00;99.90;;;;;;7531809;23;20027;-82
2022/12/01 06:52:07;;;;;;;24.40;15.40;;;5.00;99.90;;;;;;7531713;23;20018;-82
2022/12/01 06:55:10;;;;;;;24.98;14.02;;;5.00;99.90;;;;;;7531913;23;20027;-81
2022/12/01 06:58:12;;;;;;;23.80;14.55;;;5.00;99.90;;;;;;7532457;23;20022;-82
2022/12/01 07:01:13;;;;;;;24.23;13.40;;;5.10;99.90;;;;;;7535543;23;20181;-82
2022/12/01 07:04:15;;;;;;;28.52;15.75;;;5.10;99.90;;;;;;7537958;23;20102;-82
2022/12/01 07:07:17;;;;;;;23.17;13.45;;;5.10;99.90;;;;;;7535129;23;20030;-82
2022/12/01 07:10:20;;;;;;;21.15;12.55;;;5.10;99.90;;;;;;7536129;23;20025;-81
2022/12/01 07:13:22;;;;;;;23.08;15.52;;;5.10;99.90;;;;;;7534633;23;20095;-82
2022/12/01 07:16:23;;;;;;;23.17;14.45;;;5.10;99.90;;;;;;7534632;23;20026;-82
2022/12/01 07:19:25;;;;;;;23.38;15.43;;;5.20;99.90;;;;;;7533903;23;20019;-82
2022/12/01 07:22:28;;;;;;;26.88;15.38;;;5.20;99.90;;;;;;7534994;23;20033;-82
2022/12/01 07:25:31;;;;;;;22.77;14.15;;;5.30;99.90;;;;;;7533316;23;20045;-82
2022/12/01 07:28:33;;;;;;;22.75;15.15;;;5.30;99.90;;;;;;7533384;23;20023;-80
2022/12/01 07:31:35;;;;;;;20.25;13.00;;;5.30;99.90;;;;;;7533811;23;20026;-81
2022/12/01 07:34:37;;;;;;;21.63;13.02;;;5.30;99.90;;;;;;7534827;23;20473;-83
2022/12/01 07:37:39;;;;;;;20.98;12.52;;;5.30;99.90;;;;;;7469724;23;20051;-81
2022/12/01 07:40:42;;;;;;;24.15;13.68;;;5.30;99.90;;;;;;7517442;23;20362;-84
2022/12/01 07:43:45;;;;;;;23.85;13.77;;;5.30;99.90;;;;;;7536258;23;20114;-82
2022/12/01 07:46:47;;;;;;;22.45;12.50;;;5.30;99.90;;;;;;7548136;23;20023;-83
2022/12/01 07:49:48;;;;;;;22.30;12.95;;;5.30;99.90;;;;;;7531933;23;20029;-83
2022/12/01 07:52:50;;;;;;;24.05;13.52;;;5.30;99.90;;;;;;7534904;23;20029;-81
2022/12/01 07:55:54;;;;;;;27.17;14.20;;;5.30;99.90;;;;;;7534687;23;20093;-82
2022/12/01 07:58:55;;;;;;;19.58;11.50;;;5.30;99.90;;;;;;7535375;23;20033;-83
2022/12/01 08:01:58;;;;;;;19.40;12.77;;;5.30;99.90;;;;;;7534764;23;20025;-84
2022/12/01 08:04:59;;;;;;;24.08;13.90;;;5.30;99.90;;;;;;7540911;23;20026;-83
2022/12/01 08:08:01;;;;;;;18.50;12.20;;;5.30;99.90;;;;;;7535646;23;20023;-82
2022/12/01 08:11:06;;;;;;;19.00;11.70;;;5.30;99.90;;;;;;7536438;23;20350;-83
2022/12/01 08:14:08;;;;;;;20.70;11.07;;;5.30;99.90;;;;;;7535188;23;20401;-85
2022/12/01 08:17:10;;;;;;;20.17;10.73;;;5.30;99.90;;;;;;7538733;23;20034;-83
2022/12/01 08:20:12;;;;;;;20.90;13.02;;;5.30;99.90;;;;;;7536159;23;20529;-84
2022/12/01 08:23:14;;;;;;;18.33;11.75;;;5.30;99.90;;;;;;7535970;23;20105;-83
2022/12/01 08:26:19;;;;;;;21.17;12.05;;;5.30;99.90;;;;;;7536329;23;20131;-82
2022/12/01 08:29:20;;;;;;;19.48;13.68;;;5.30;99.90;;;;;;7535525;23;20101;-83
2022/12/01 08:32:22;;;;;;;21.55;13.93;;;5.30;99.90;;;;;;7535041;23;20098;-83
2022/12/01 08:35:24;;;;;;;21.00;12.70;;;5.40;99.90;;;;;;7534537;23;20065;-81
2022/12/01 08:38:27;;;;;;;22.58;12.50;;;5.40;99.90;;;;;;7535254;23;20105;-82
2022/12/01 08:41:31;;;;;;;25.08;13.18;;;5.40;99.90;;;;;;7537391;23;20051;-83
2022/12/01 08:45:05;;;;;;;20.25;11.70;;;5.40;99.90;;;;;;7541499;23;20337;-84
2022/12/01 08:48:07;;;;;;;19.63;14.35;;;5.40;99.90;;;;;;7547840;23;20025;-83
2022/12/01 08:51:11;;;;;;;20.50;13.13;;;5.40;99.90;;;;;;7534445;23;20022;-82
2022/12/01 08:54:22;;;;;;;17.80;12.20;;;5.40;99.90;;;;;;7536481;23;20027;-83
2022/12/01 08:57:41;;;;;;;24.63;11.48;;;5.40;99.90;;;;;;7533627;23;20030;-83
2022/12/01 09:00:43;;;;;;;25.15;14.43;;;5.40;99.90;;;;;;7534876;23;20547;-83
2022/12/01 09:03:46;;;;;;;35.95;20.20;;;5.40;99.90;;;;;;7541677;23;20454;-84
2022/12/01 09:06:50;;;;;;;56.40;46.50;;;5.50;99.90;;;;;;7545333;23;20050;-83
2022/12/01 09:09:52;;;;;;;44.28;29.77;;;5.50;99.90;;;;;;7535967;23;20019;-83
2022/12/01 09:12:57;;;;;;;30.65;23.42;;;5.60;99.90;;;;;;7548179;23;20105;-84
2022/12/01 09:16:01;;;;;;;22.60;16.50;;;5.60;99.90;;;;;;7539133;23;20019;-84
2022/12/01 09:19:02;;;;;;;19.77;12.15;;;5.60;99.90;;;;;;7534714;23;20050;-84
2022/12/01 09:22:04;;;;;;;21.80;11.88;;;5.60;99.90;;;;;;7535019;23;20105;-84
2022/12/01 09:25:13;;;;;;;21.63;13.25;;;5.50;99.90;;;;;;7534343;23;20023;-84
2022/12/01 09:28:17;;;;;;;22.40;12.18;;;5.50;99.90;;;;;;7534642;23;20026;-84
2022/12/01 09:31:22;;;;;;;19.60;13.25;;;5.60;99.90;;;;;;7534189;23;20046;-84
2022/12/01 09:34:24;;;;;;;17.42;11.73;;;5.60;99.90;;;;;;7534201;23;20031;-84
2022/12/01 09:37:26;;;;;;;21.33;13.10;;;5.60;99.90;;;;;;7533326;23;20487;-84
2022/12/01 09:40:38;;;;;;;26.92;16.85;;;5.60;99.90;;;;;;7534419;23;20041;-83
2022/12/01 09:43:44;;;;;;;22.17;14.70;;;5.60;99.90;;;;;;7533508;23;20058;-84
2022/12/01 09:46:49;;;;;;;21.25;14.98;;;5.60;99.90;;;;;;7534456;23;20131;-82
2022/12/01 09:49:56;;;;;;;19.33;13.57;;;5.60;99.90;;;;;;7532937;23;20030;-84
2022/12/01 09:53:00;;;;;;;17.17;11.77;;;5.50;99.90;;;;;;7533324;23;20463;-84
2022/12/01 09:56:02;;;;;;;26.85;15.35;;;5.50;99.90;;;;;;7531346;23;20023;-84
2022/12/01 09:59:07;;;;;;;21.95;12.60;;;5.60;99.90;;;;;;7533852;23;20499;-84
2022/12/01 10:02:24;;;;;;;18.13;13.45;;;5.60;99.90;;;;;;7533793;23;20038;-85
2022/12/01 10:05:34;;;;;;;26.35;14.13;;;5.60;99.90;;;;;;7534294;23;20105;-84
2022/12/01 10:08:41;;;;;;;21.80;14.48;;;5.70;99.90;;;;;;7534179;23;20030;-84
2022/12/01 10:11:45;;;;;;;16.63;11.45;;;5.70;99.90;;;;;;7534386;23;20023;-85
2022/12/01 10:14:49;;;;;;;23.63;14.90;;;5.70;99.90;;;;;;7535017;23;20078;-80
2022/12/01 10:18:05;;;;;;;22.88;14.82;;;5.70;99.90;;;;;;7536688;23;20023;-80
2022/12/01 10:21:14;;;;;;;21.17;13.07;;;5.80;99.90;;;;;;7536216;23;20082;-79
2022/12/01 10:24:30;;;;;;;22.45;13.18;;;5.80;99.90;;;;;;7537641;23;20121;-79
2022/12/01 10:27:43;;;;;;;16.13;10.77;;;5.80;99.90;;;;;;7541444;23;20113;-79
2022/12/01 10:30:57;;;;;;;19.70;11.95;;;5.80;99.90;;;;;;7542631;23;20529;-80
2022/12/01 10:34:10;;;;;;;18.02;11.18;;;5.90;99.90;;;;;;7542544;23;20415;-81
2022/12/01 10:37:21;;;;;;;18.52;10.68;;;5.90;99.90;;;;;;7536521;23;20215;-81
2022/12/01 10:40:52;;;;;;;19.75;13.05;;;5.90;99.90;;;;;;7539002;23;20074;-81
2022/12/01 10:44:06;;;;;;;20.00;11.18;;;6.10;99.90;;;;;;7541950;23;20019;-81
2022/12/01 10:50:40;;;;;;;18.98;13.20;;;6.10;99.90;;;;;;7536083;23;20019;-81
2022/12/01 10:53:42;;;;;;;20.65;11.80;;;6.10;99.90;;;;;;7541932;23;20395;-81
2022/12/01 10:56:46;;;;;;;19.30;12.60;;;6.10;99.90;;;;;;7532694;23;20054;-81
2022/12/01 10:59:51;;;;;;;18.75;11.30;;;6.10;99.90;;;;;;7545340;23;20038;-81
2022/12/01 11:02:54;;;;;;;19.52;12.73;;;6.10;99.90;;;;;;7549825;23;20234;-81
2022/12/01 11:05:58;;;;;;;23.73;14.07;;;6.10;99.90;;;;;;7543247;23;20103;-81
2022/12/01 11:09:03;;;;;;;23.48;13.57;;;6.10;99.90;;;;;;7541755;23;20086;-81
2022/12/01 11:12:05;;;;;;;29.45;18.33;;;6.10;99.90;;;;;;7539049;23;20019;-81
2022/12/01 11:15:17;;;;;;;18.85;12.93;;;6.20;99.90;;;;;;7537759;23;20359;-81
2022/12/01 11:18:28;;;;;;;26.33;18.40;;;6.20;99.90;;;;;;7540917;23;20022;-81
2022/12/01 11:21:30;;;;;;;22.38;13.50;;;6.30;99.90;;;;;;7540631;23;20085;-81
2022/12/01 11:24:41;;;;;;;19.63;14.15;;;6.20;99.90;;;;;;7539375;23;20046;-81
2022/12/01 11:27:48;;;;;;;18.20;12.13;;;6.20;99.90;;;;;;7538762;23;20358;-81
2022/12/01 11:30:55;;;;;;;21.33;13.88;;;6.20;99.90;;;;;;7539695;23;20348;-81
2022/12/01 11:33:58;;;;;;;19.10;13.38;;;6.10;99.90;;;;;;7539438;23;20098;-81
2022/12/01 11:37:02;;;;;;;24.05;13.35;;;6.20;99.90;;;;;;7541608;23;20102;-81
2022/12/01 11:40:16;;;;;;;22.95;13.00;;;6.10;99.90;;;;;;7537523;23;20065;-80
2022/12/01 11:43:25;;;;;;;21.25;11.95;;;6.20;99.90;;;;;;7539770;23;20097;-81
2022/12/01 11:46:33;;;;;;;27.38;13.52;;;6.20;99.90;;;;;;7540573;23;20106;-81
2022/12/01 11:49:41;;;;;;;19.30;13.65;;;6.20;99.90;;;;;;7539981;23;20078;-81
2022/12/01 11:52:46;;;;;;;18.90;12.32;;;6.20;99.90;;;;;;7539140;23;20033;-81
2022/12/01 11:55:48;;;;;;;23.15;12.88;;;6.20;99.90;;;;;;7539627;23;20507;-81
2022/12/01 11:58:53;;;;;;;20.25;13.27;;;6.20;99.90;;;;;;7540652;23;20101;-80
2022/12/01 12:02:20;;;;;;;22.23;13.15;;;6.30;99.90;;;;;;7539714;23;20102;-81
2022/12/01 12:05:49;;;;;;;20.17;12.38;;;6.20;99.90;;;;;;7541152;23;20110;-81
2022/12/01 12:09:05;;;;;;;26.75;12.88;;;6.20;99.90;;;;;;7538765;23;20033;-81
2022/12/01 12:12:23;;;;;;;19.52;11.93;;;6.20;99.90;;;;;;7539577;23;20026;-81
2022/12/01 12:15:57;;;;;;;22.00;13.00;;;6.30;99.90;;;;;;7534031;23;20370;-81
2022/12/01 12:19:49;;;;;;;27.65;20.15;;;6.40;99.90;;;;;;7403803;24;21198;-81
2022/12/01 12:23:28;;;;;;;21.15;16.05;;;6.30;99.90;;;;;;7381297;24;20069;-82
2022/12/01 12:26:38;;;;;;;19.13;12.63;;;6.40;99.90;;;;;;7431767;24;20424;-81
2022/12/01 12:29:54;;;;;;;19.58;11.45;;;6.40;99.90;;;;;;7442349;23;20030;-81
2022/12/01 12:33:41;;;;;;;22.88;13.13;;;6.50;99.90;;;;;;7539982;23;20059;-83
2022/12/01 12:36:56;;;;;;;21.27;12.30;;;6.50;99.90;;;;;;7539208;23;20027;-83
2022/12/01 12:40:26;;;;;;;21.88;14.13;;;6.40;99.90;;;;;;7538049;23;20023;-80
2022/12/01 12:43:37;;;;;;;20.92;13.57;;;6.40;99.90;;;;;;7539507;23;20477;-82
2022/12/01 12:46:47;;;;;;;17.40;11.75;;;6.40;99.90;;;;;;7541476;23;20454;-80
2022/12/01 12:50:01;;;;;;;26.95;14.18;;;6.50;99.90;;;;;;7536729;23;20023;-82
2022/12/01 12:53:10;;;;;;;22.45;14.82;;;6.50;99.90;;;;;;7536787;23;20026;-81
2022/12/01 12:56:17;;;;;;;20.70;13.15;;;6.60;99.90;;;;;;7538705;23;20395;-80
2022/12/01 12:59:23;;;;;;;22.90;14.20;;;6.60;99.90;;;;;;7537063;23;20098;-81
2022/12/01 13:02:31;;;;;;;19.00;12.00;;;6.70;99.90;;;;;;7538362;23;20061;-83
2022/12/01 13:05:38;;;;;;;19.75;12.52;;;6.70;99.90;;;;;;7537814;23;20023;-81
2022/12/01 13:08:46;;;;;;;21.15;12.85;;;6.70;99.90;;;;;;7543322;23;20026;-81
2022/12/01 13:23:26;;;;;;;23.58;13.27;;;6.70;99.90;;;;;;7412836;24;20016;-81
2022/12/01 13:26:28;;;;;;;17.42;11.65;;;6.70;99.90;;;;;;7504996;23;20102;-81
2022/12/01 13:33:02;;;;;;;19.33;12.57;;;6.60;99.90;;;;;;7539455;23;20070;-82
2022/12/01 13:36:09;;;;;;;25.08;15.27;;;6.60;99.90;;;;;;7538280;23;20022;-82
2022/12/01 13:39:20;;;;;;;82.13;51.33;;;6.60;99.90;;;;;;7524918;23;20351;-82
2022/12/01 13:42:24;;;;;;;73.53;46.25;;;6.60;99.90;;;;;;7538682;23;20106;-81
2022/12/01 13:45:32;;;;;;;22.83;16.52;;;6.60;99.90;;;;;;7540132;23;20101;-81
2022/12/01 13:48:50;;;;;;;24.20;15.57;;;6.60;99.90;;;;;;7524319;23;20558;-83
2022/12/01 13:52:31;;;;;;;23.60;14.48;;;6.50;99.90;;;;;;7550351;23;20085;-81
2022/12/01 13:55:52;;;;;;;22.33;13.27;;;6.50;99.90;;;;;;7533646;23;20038;-82
2022/12/01 13:58:55;;;;;;;20.40;12.10;;;6.50;99.90;;;;;;7541585;23;20105;-81
2022/12/01 14:02:13;;;;;;;22.42;14.70;;;6.60;99.90;;;;;;7546796;23;20031;-80
2022/12/01 14:05:43;;;;;;;23.40;15.02;;;6.60;99.90;;;;;;7542076;23;20689;-81
2022/12/01 14:08:47;;;;;;;21.55;14.60;;;6.60;99.90;;;;;;7538337;23;20102;-81
2022/12/01 14:11:58;;;;;;;28.48;16.58;;;6.60;99.90;;;;;;7547080;23;20078;-81
2022/12/01 14:15:02;;;;;;;22.65;13.57;;;6.60;99.90;;;;;;7548225;23;20098;-81
2022/12/01 14:18:08;;;;;;;24.45;13.70;;;6.60;99.90;;;;;;7541490;23;20071;-81
2022/12/01 14:21:12;;;;;;;19.75;13.82;;;6.60;99.90;;;;;;7539066;23;20071;-81
2022/12/01 14:24:22;;;;;;;22.98;14.07;;;6.50;99.90;;;;;;7538693;23;20030;-81
2022/12/01 14:27:36;;;;;;;24.33;13.55;;;6.50;99.90;;;;;;7538123;23;20045;-81
2022/12/01 14:31:03;;;;;;;23.88;13.25;;;6.50;99.90;;;;;;7537955;23;20023;-80
2022/12/01 14:34:08;;;;;;;20.52;13.90;;;6.50;99.90;;;;;;7537578;23;20026;-81
2022/12/01 14:37:11;;;;;;;21.27;13.80;;;6.50;99.90;;;;;;7536901;23;20051;-80
2022/12/01 14:40:25;;;;;;;22.25;12.55;;;6.50;99.90;;;;;;7535407;23;20463;-80
2022/12/01 14:46:58;;;;;;;22.83;13.55;;;6.40;99.90;;;;;;7528979;23;20023;-81
2022/12/01 14:50:05;;;;;;;23.20;13.27;;;6.50;99.90;;;;;;7536816;23;20029;-82
2022/12/01 14:53:18;;;;;;;20.42;12.52;;;6.40;99.90;;;;;;7542105;23;20019;-82
2022/12/01 14:56:22;;;;;;;22.55;12.07;;;6.40;99.90;;;;;;7536532;23;20026;-82
2022/12/01 14:59:27;;;;;;;21.70;12.50;;;6.40;99.90;;;;;;7537684;23;20078;-82
2022/12/01 15:02:28;;;;;;;18.90;12.38;;;6.40;99.90;;;;;;7539209;23;20023;-80
2022/12/01 15:05:32;;;;;;;16.50;11.48;;;6.40;99.90;;;;;;7538360;23;20080;-80
2022/12/01 15:08:38;;;;;;;19.65;12.07;;;6.40;99.90;;;;;;7536906;23;20117;-81
2022/12/01 15:11:51;;;;;;;24.42;12.27;;;6.30;99.90;;;;;;7538654;23;20019;-83
2022/12/01 15:14:54;;;;;;;18.40;12.02;;;6.30;99.90;;;;;;7540401;23;20038;-81
2022/12/01 15:18:00;;;;;;;18.17;11.65;;;6.30;99.90;;;;;;7543835;23;20109;-81
2022/12/01 15:21:07;;;;;;;90.93;56.42;;;6.30;99.90;;;;;;7530562;23;20027;-82
2022/12/01 15:27:26;;;;;;;27.98;17.50;;;6.30;99.90;;;;;;7470667;23;20042;-80
2022/12/01 15:30:30;;;;;;;20.60;13.13;;;6.30;99.90;;;;;;7473206;23;20076;-81
2022/12/01 15:33:45;;;;;;;;;;;;;;;;;;;;;
2022/12/01 15:36:48;;;;;;;23.13;14.27;;;6.30;99.90;;;;;;7454014;23;20027;-79
2022/12/01 15:39:53;;;;;;;21.23;13.43;;;6.30;99.90;;;;;;7467458;23;20041;-79
2022/12/01 15:43:05;;;;;;;24.40;14.30;;;6.30;99.90;;;;;;7468270;23;20032;-80
2022/12/01 15:46:16;;;;;;;22.65;13.07;;;6.20;99.90;;;;;;7467877;23;20039;-81
2022/12/01 15:49:39;;;;;;;29.67;18.75;;;6.20;99.90;;;;;;7467212;23;20087;-77
2022/12/01 15:52:43;;;;;;;32.33;26.95;;;6.20;99.90;;;;;;7466308;23;20118;-79
2022/12/01 15:55:48;;;;;;;19.90;15.00;;;6.20;99.90;;;;;;7468103;23;20051;-82
2022/12/01 15:58:51;;;;;;;21.13;12.25;;;6.20;99.90;;;;;;7468687;23;20028;-81
2022/12/01 16:05:59;;;;;;;21.48;13.93;;;6.10;99.90;;;;;;7451244;23;20099;-83
2022/12/01 16:09:03;;;;;;;21.13;12.95;;;6.10;99.90;;;;;;7454517;23;20024;-81
2022/12/01 16:12:21;;;;;;;21.05;13.38;;;6.10;99.90;;;;;;7467780;23;20587;-81
2022/12/01 16:15:23;;;;;;;18.52;12.73;;;6.10;99.90;;;;;;7466352;23;20547;-81
2022/12/01 16:18:33;;;;;;;23.35;15.15;;;6.10;99.90;;;;;;7465676;23;20079;-81
2022/12/01 16:22:28;;;;;;;25.02;13.73;;;6.10;99.90;;;;;;7466289;23;20083;-82
2022/12/01 16:25:42;;;;;;;22.85;13.25;;;6.10;99.90;;;;;;7390093;24;20035;-81
2022/12/01 16:28:44;;;;;;;19.90;13.18;;;6.10;99.90;;;;;;7435147;23;20024;-81
2022/12/01 16:31:45;;;;;;;20.73;13.38;;;6.10;99.90;;;;;;7467422;23;20047;-80
2022/12/01 16:34:53;;;;;;;22.73;15.35;;;6.10;99.90;;;;;;7468205;23;20552;-81